createdAt,value
2018-12-26T00:02:53.477Z,4.00
2018-12-26T00:06:00.655Z,3.90
2018-12-26T00:09:08.208Z,4.00
2018-12-26T00:12:15.426Z,4.00
2018-12-26T00:15:22.526Z,3.90
2018-12-26T00:18:29.706Z,3.90
2018-12-26T00:21:38.610Z,3.90
2018-12-26T00:24:45.698Z,3.90
2018-12-26T00:27:52.781Z,4.00
2018-12-26T00:30:59.978Z,3.80
2018-12-26T00:34:08.009Z,3.80
2018-12-26T00:37:15.184Z,3.70
2018-12-26T00:40:22.297Z,3.70
2018-12-26T00:43:29.378Z,3.70
2018-12-26T00:46:36.455Z,3.80
2018-12-26T00:49:43.520Z,3.80
2018-12-26T00:52:50.636Z,3.70
2018-12-26T00:55:57.742Z,3.70
2018-12-26T00:59:04.864Z,3.60
2018-12-26T01:02:12.810Z,3.60
2018-12-26T01:05:20.059Z,3.60
2018-12-26T01:08:27.192Z,3.60
2018-12-26T01:11:34.326Z,3.70
2018-12-26T01:14:41.441Z,3.80
2018-12-26T01:17:48.563Z,3.80
2018-12-26T01:20:55.593Z,3.80
2018-12-26T01:24:02.631Z,3.80
2018-12-26T01:27:09.664Z,3.90
2018-12-26T01:30:16.814Z,3.90
2018-12-26T01:33:23.834Z,3.80
2018-12-26T01:36:30.914Z,3.70
2018-12-26T01:39:38.105Z,3.70
2018-12-26T01:42:45.149Z,3.80
2018-12-26T01:45:52.178Z,3.80
2018-12-26T01:48:59.328Z,3.70
2018-12-26T01:52:06.407Z,3.70
2018-12-26T01:55:13.577Z,3.70
2018-12-26T01:58:21.355Z,3.70
2018-12-26T02:01:28.458Z,3.80
2018-12-26T02:04:35.539Z,3.80
2018-12-26T02:07:42.654Z,3.80
2018-12-26T02:10:49.805Z,3.70
2018-12-26T02:13:56.880Z,3.80
2018-12-26T02:17:04.183Z,3.80
2018-12-26T02:20:11.267Z,3.80
2018-12-26T02:23:18.352Z,3.90
2018-12-26T02:26:26.478Z,3.70
2018-12-26T02:29:33.580Z,3.60
2018-12-26T02:32:40.679Z,3.50
2018-12-26T02:35:47.743Z,3.40
2018-12-26T02:38:54.824Z,3.50
2018-12-26T02:42:01.911Z,3.40
2018-12-26T02:45:09.027Z,3.40
2018-12-26T02:48:16.080Z,3.50
2018-12-26T02:51:23.344Z,3.40
2018-12-26T02:54:30.760Z,3.30
2018-12-26T02:57:38.050Z,3.50
2018-12-26T03:00:45.147Z,3.50
2018-12-26T03:03:52.283Z,3.40
2018-12-26T03:06:59.394Z,3.40
2018-12-26T03:10:06.720Z,3.40
2018-12-26T03:13:13.829Z,3.60
2018-12-26T03:16:21.031Z,3.70
2018-12-26T03:19:28.099Z,3.50
2018-12-26T03:22:35.301Z,3.60
2018-12-26T03:25:42.371Z,3.60
2018-12-26T03:28:49.426Z,3.60
2018-12-26T03:31:56.562Z,3.50
2018-12-26T03:35:03.696Z,3.60
2018-12-26T03:38:10.927Z,3.60
2018-12-26T03:41:18.032Z,3.70
2018-12-26T03:44:25.635Z,3.70
2018-12-26T03:47:33.042Z,3.60
2018-12-26T03:50:40.765Z,3.60
2018-12-26T03:53:47.833Z,3.60
2018-12-26T03:56:55.596Z,3.60
2018-12-26T04:00:02.685Z,3.60
2018-12-26T04:03:09.834Z,3.60
2018-12-26T04:06:16.887Z,3.60
2018-12-26T04:09:24.043Z,3.50
2018-12-26T04:12:31.190Z,3.50
2018-12-26T04:15:38.631Z,3.50
2018-12-26T04:18:47.970Z,3.40
2018-12-26T04:21:55.080Z,3.20
2018-12-26T04:25:02.428Z,3.10
2018-12-26T04:28:09.536Z,3.20
2018-12-26T04:31:18.390Z,3.20
2018-12-26T04:34:25.551Z,3.20
2018-12-26T04:37:32.619Z,3.10
2018-12-26T04:40:39.724Z,3.20
2018-12-26T04:43:51.366Z,3.30
2018-12-26T04:46:56.284Z,3.10
2018-12-26T04:50:03.325Z,3.20
2018-12-26T04:53:10.452Z,3.10
2018-12-26T04:56:17.504Z,3.00
2018-12-26T04:59:24.614Z,3.00
2018-12-26T05:02:31.719Z,3.20
2018-12-26T05:05:38.820Z,3.20
2018-12-26T05:08:46.006Z,3.20
2018-12-26T05:11:54.853Z,3.10
2018-12-26T05:15:01.983Z,3.20
2018-12-26T05:18:09.102Z,3.30
2018-12-26T05:21:16.219Z,3.20
2018-12-26T05:24:24.132Z,2.90
2018-12-26T05:27:34.292Z,2.80
2018-12-26T05:30:39.978Z,2.80
2018-12-26T05:33:47.114Z,2.50
2018-12-26T05:36:58.916Z,2.40
2018-12-26T05:40:06.254Z,2.40
2018-12-26T05:43:13.303Z,2.40
2018-12-26T05:46:20.405Z,2.30
2018-12-26T05:49:27.795Z,2.30
2018-12-26T05:52:35.202Z,2.20
2018-12-26T05:55:42.333Z,2.20
2018-12-26T05:58:49.495Z,2.20
2018-12-26T06:01:56.551Z,2.00
2018-12-26T06:05:03.820Z,1.90
2018-12-26T06:08:11.753Z,1.90
2018-12-26T06:11:18.811Z,1.90
2018-12-26T06:14:25.979Z,2.10
2018-12-26T06:17:34.295Z,2.10
2018-12-26T06:20:41.290Z,2.20
2018-12-26T06:23:48.318Z,2.10
2018-12-26T06:26:55.272Z,2.10
2018-12-26T06:30:02.343Z,2.10
2018-12-26T06:33:09.325Z,2.20
2018-12-26T06:36:16.356Z,2.20
2018-12-26T06:39:23.490Z,2.10
2018-12-26T06:42:30.664Z,2.10
2018-12-26T06:45:37.934Z,2.10
2018-12-26T06:48:45.056Z,2.20
2018-12-26T06:51:52.250Z,2.10
2018-12-26T06:54:59.386Z,2.10
2018-12-26T06:58:06.536Z,1.90
2018-12-26T07:01:13.716Z,2.00
2018-12-26T07:04:20.766Z,2.10
2018-12-26T07:07:28.141Z,2.10
2018-12-26T07:10:35.524Z,2.10
2018-12-26T07:13:43.432Z,2.10
2018-12-26T07:16:51.097Z,2.10
2018-12-26T07:19:58.569Z,2.10
2018-12-26T07:23:06.263Z,2.10
2018-12-26T07:26:13.584Z,2.10
2018-12-26T07:29:20.771Z,2.10
2018-12-26T07:32:28.054Z,2.30
2018-12-26T07:35:35.342Z,2.20
2018-12-26T07:38:42.705Z,2.20
2018-12-26T07:41:50.196Z,2.30
2018-12-26T07:44:57.662Z,2.30
2018-12-26T07:48:05.069Z,2.30
2018-12-26T07:51:12.501Z,2.30
2018-12-26T07:54:20.939Z,2.40
2018-12-26T07:57:28.014Z,2.50
2018-12-26T08:00:35.109Z,2.70
2018-12-26T08:03:42.152Z,2.60
2018-12-26T08:06:50.211Z,2.60
2018-12-26T08:09:57.313Z,2.50
2018-12-26T08:13:04.324Z,2.50
2018-12-26T08:16:11.422Z,2.40
2018-12-26T08:19:18.440Z,2.30
2018-12-26T08:22:25.660Z,2.30
2018-12-26T08:25:32.603Z,2.40
2018-12-26T08:28:39.822Z,2.50
2018-12-26T08:31:47.013Z,2.60
2018-12-26T08:34:54.059Z,2.70
2018-12-26T08:38:01.099Z,2.60
2018-12-26T08:41:08.203Z,2.60
2018-12-26T08:44:15.236Z,2.50
2018-12-26T08:47:22.328Z,2.60
2018-12-26T08:50:30.953Z,2.80
2018-12-26T08:53:38.174Z,2.60
2018-12-26T08:56:45.209Z,2.80
2018-12-26T08:59:52.292Z,2.90
2018-12-26T09:03:00.687Z,2.70
2018-12-26T09:06:08.870Z,2.90
2018-12-26T09:09:15.901Z,3.10
2018-12-26T09:12:22.928Z,2.90
2018-12-26T09:15:30.472Z,3.00
2018-12-26T09:18:37.493Z,3.00
2018-12-26T09:21:44.555Z,3.00
2018-12-26T09:24:51.945Z,3.00
2018-12-26T09:27:59.004Z,2.80
2018-12-26T09:31:06.033Z,2.70
2018-12-26T09:34:13.333Z,2.60
2018-12-26T09:37:20.546Z,2.60
2018-12-26T09:40:27.629Z,2.70
2018-12-26T09:43:34.915Z,2.80
2018-12-26T09:46:42.147Z,2.80
2018-12-26T09:49:49.233Z,2.80
2018-12-26T09:52:56.308Z,2.90
2018-12-26T09:56:03.534Z,2.90
2018-12-26T09:59:10.588Z,3.00
2018-12-26T10:02:17.526Z,3.20
2018-12-26T10:05:24.587Z,3.30
2018-12-26T10:08:31.691Z,3.20
2018-12-26T10:11:38.742Z,3.40
2018-12-26T10:14:45.820Z,3.40
2018-12-26T10:17:52.847Z,3.50
2018-12-26T10:20:59.993Z,3.50
2018-12-26T10:24:07.072Z,3.60
2018-12-26T10:27:14.371Z,3.80
2018-12-26T10:30:21.482Z,3.70
2018-12-26T10:33:28.862Z,3.70
2018-12-26T10:36:35.919Z,3.80
2018-12-26T10:39:44.874Z,3.80
2018-12-26T10:42:52.066Z,3.70
2018-12-26T10:45:59.153Z,3.90
2018-12-26T10:49:06.324Z,4.00
2018-12-26T10:52:13.510Z,4.00
2018-12-26T10:55:20.601Z,4.00
2018-12-26T10:58:27.650Z,4.00
2018-12-26T11:01:34.897Z,4.00
2018-12-26T11:04:42.104Z,4.00
2018-12-26T11:07:50.805Z,3.90
2018-12-26T11:10:57.923Z,3.90
2018-12-26T11:14:05.173Z,3.90
2018-12-26T11:17:12.524Z,3.80
2018-12-26T11:20:21.468Z,3.70
2018-12-26T11:23:28.405Z,3.60
2018-12-26T11:26:35.522Z,3.70
2018-12-26T11:29:42.628Z,3.70
2018-12-26T11:32:49.693Z,3.60
2018-12-26T11:35:56.930Z,3.60
2018-12-26T11:39:05.380Z,3.60
2018-12-26T11:42:12.542Z,3.60
2018-12-26T11:45:19.585Z,3.60
2018-12-26T11:48:26.844Z,3.60
2018-12-26T11:51:33.953Z,3.70
2018-12-26T11:54:40.954Z,3.70
2018-12-26T11:57:48.181Z,3.70
2018-12-26T12:00:55.186Z,4.00
2018-12-26T12:04:02.318Z,4.00
2018-12-26T12:07:09.414Z,4.00
2018-12-26T12:10:16.485Z,3.90
2018-12-26T12:13:23.554Z,3.70
2018-12-26T12:16:30.986Z,3.80
2018-12-26T12:19:38.031Z,3.80
2018-12-26T12:22:45.096Z,3.60
2018-12-26T12:25:52.295Z,3.50
2018-12-26T12:28:59.342Z,3.50
2018-12-26T12:32:06.423Z,3.50
2018-12-26T12:35:13.472Z,3.50
2018-12-26T12:38:20.620Z,3.60
2018-12-26T12:41:27.767Z,3.60
2018-12-26T12:44:35.971Z,3.60
2018-12-26T12:47:43.050Z,3.70
2018-12-26T12:50:50.163Z,3.60
2018-12-26T12:53:57.236Z,3.60
2018-12-26T12:57:04.352Z,3.40
2018-12-26T13:00:11.411Z,3.50
2018-12-26T13:03:18.477Z,3.60
2018-12-26T13:06:25.638Z,3.60
2018-12-26T13:09:32.702Z,3.40
2018-12-26T13:12:41.612Z,3.30
2018-12-26T13:15:48.619Z,3.10
2018-12-26T13:18:55.655Z,3.10
2018-12-26T13:22:02.697Z,3.00
2018-12-26T13:25:11.772Z,3.00
2018-12-26T13:28:25.646Z,3.00
2018-12-26T13:31:30.501Z,3.00
2018-12-26T13:34:35.288Z,3.10
2018-12-26T13:37:43.006Z,3.10
2018-12-26T13:40:47.645Z,3.00
2018-12-26T13:43:52.356Z,3.00
2018-12-26T13:46:57.004Z,3.00
2018-12-26T13:50:01.850Z,2.90
2018-12-26T13:53:06.582Z,2.90
2018-12-26T13:56:11.278Z,2.90
2018-12-26T13:59:17.646Z,2.80
2018-12-26T14:02:22.528Z,2.80
2018-12-26T14:05:27.292Z,2.70
2018-12-26T14:08:32.062Z,2.60
2018-12-26T14:11:36.776Z,2.60
2018-12-26T14:14:41.465Z,2.50
2018-12-26T14:17:46.222Z,2.60
2018-12-26T14:20:53.289Z,2.60
2018-12-26T14:23:58.026Z,2.60
2018-12-26T14:27:02.747Z,2.70
2018-12-26T14:30:11.238Z,2.50
2018-12-26T14:33:14.768Z,2.50
2018-12-26T14:36:19.574Z,2.60
2018-12-26T14:39:24.386Z,2.60
2018-12-26T14:42:29.378Z,2.60
2018-12-26T14:45:34.073Z,2.50
2018-12-26T14:48:38.838Z,2.50
2018-12-26T14:51:43.758Z,2.40
2018-12-26T14:54:48.513Z,2.50
2018-12-26T14:57:53.259Z,2.60
2018-12-26T15:00:58.494Z,2.60
2018-12-26T15:04:03.191Z,2.70
2018-12-26T15:07:07.988Z,2.90
2018-12-26T15:10:12.710Z,2.80
2018-12-26T15:13:17.392Z,2.80
2018-12-26T15:16:22.187Z,2.80
2018-12-26T15:19:27.013Z,2.80
2018-12-26T15:22:34.011Z,2.80
2018-12-26T15:25:38.713Z,2.90
2018-12-26T15:28:43.633Z,2.70
2018-12-26T15:31:48.319Z,2.70
2018-12-26T15:34:53.135Z,2.80
2018-12-26T15:37:57.839Z,2.80
2018-12-26T15:41:02.836Z,2.70
2018-12-26T15:44:07.538Z,2.60
2018-12-26T15:47:12.231Z,2.50
2018-12-26T15:50:16.939Z,2.60
2018-12-26T15:53:21.693Z,2.60
2018-12-26T15:56:26.574Z,2.70
2018-12-26T15:59:31.191Z,2.60
2018-12-26T16:02:35.883Z,2.60
2018-12-26T16:05:40.550Z,2.60
2018-12-26T16:08:45.286Z,2.70
2018-12-26T16:11:50.016Z,2.70
2018-12-26T16:14:54.677Z,2.70
2018-12-26T16:17:59.348Z,2.60
2018-12-26T16:21:04.046Z,2.70
2018-12-26T16:24:09.844Z,2.70
2018-12-26T16:27:14.450Z,2.70
2018-12-26T16:30:19.073Z,2.70
2018-12-26T16:33:23.849Z,2.80
2018-12-26T16:36:28.639Z,2.80
2018-12-26T16:39:35.821Z,2.70
2018-12-26T16:42:39.633Z,2.70
2018-12-26T16:45:45.509Z,2.70
2018-12-26T16:48:50.266Z,2.70
2018-12-26T16:51:54.961Z,2.70
2018-12-26T16:54:59.719Z,2.70
2018-12-26T16:58:04.431Z,2.70
2018-12-26T17:01:09.225Z,2.70
2018-12-26T17:04:13.932Z,2.70
2018-12-26T17:07:22.124Z,2.80
2018-12-26T17:10:27.061Z,2.80
2018-12-26T17:13:31.772Z,2.80
2018-12-26T17:16:36.424Z,2.80
2018-12-26T17:19:41.136Z,2.80
2018-12-26T17:22:45.833Z,2.90
2018-12-26T17:25:51.653Z,2.90
2018-12-26T17:28:56.300Z,2.80
2018-12-26T17:32:01.052Z,2.90
2018-12-26T17:35:05.804Z,2.90
2018-12-26T17:38:10.611Z,2.90
2018-12-26T17:41:15.452Z,2.80
2018-12-26T17:44:20.182Z,2.80
2018-12-26T17:47:27.547Z,2.70
2018-12-26T17:50:50.810Z,2.70
2018-12-26T17:54:26.239Z,2.80
2018-12-26T17:57:38.555Z,2.60
2018-12-26T18:01:19.928Z,2.70
2018-12-26T18:04:25.538Z,2.80
2018-12-26T18:07:30.227Z,2.70
2018-12-26T18:10:34.922Z,2.80
2018-12-26T18:13:39.661Z,2.80
2018-12-26T18:16:44.298Z,2.90
2018-12-26T18:19:49.029Z,2.90
2018-12-26T18:22:53.753Z,3.00
2018-12-26T18:25:59.716Z,3.00
2018-12-26T18:29:04.560Z,3.10
2018-12-26T18:32:09.635Z,3.10
2018-12-26T18:35:20.724Z,3.00
2018-12-26T18:38:25.565Z,2.90
2018-12-26T18:41:32.643Z,3.00
2018-12-26T18:44:37.402Z,3.20
2018-12-26T18:47:42.097Z,3.20
2018-12-26T18:50:46.868Z,3.30
2018-12-26T18:53:51.645Z,3.20
2018-12-26T18:56:56.476Z,3.20
2018-12-26T19:00:04.852Z,3.20
2018-12-26T19:03:12.105Z,3.30
2018-12-26T19:06:19.648Z,3.20
2018-12-26T19:09:26.925Z,3.20
2018-12-26T19:12:34.053Z,3.20
2018-12-26T19:15:41.725Z,3.20
2018-12-26T19:18:48.795Z,3.30
2018-12-26T19:21:55.851Z,3.20
2018-12-26T19:25:02.987Z,3.20
2018-12-26T19:28:11.809Z,3.20
2018-12-26T19:31:19.123Z,3.30
2018-12-26T19:34:26.610Z,3.30
2018-12-26T19:37:33.770Z,3.40
2018-12-26T19:40:41.606Z,3.40
2018-12-26T19:43:48.833Z,3.30
2018-12-26T19:46:56.012Z,3.30
2018-12-26T19:50:05.256Z,3.30
2018-12-26T19:53:14.974Z,3.40
2018-12-26T19:56:21.743Z,3.30
2018-12-26T19:59:28.949Z,3.30
2018-12-26T20:02:36.076Z,3.40
2018-12-26T20:05:43.480Z,3.40
2018-12-26T20:08:50.948Z,3.40
2018-12-26T20:12:03.438Z,3.40
2018-12-26T20:15:10.557Z,3.50
2018-12-26T20:18:19.357Z,3.60
2018-12-26T20:21:26.430Z,3.50
2018-12-26T20:24:34.001Z,3.40
2018-12-26T20:27:41.247Z,3.40
2018-12-26T20:30:49.543Z,3.50
2018-12-26T20:33:56.493Z,3.50
2018-12-26T20:37:04.269Z,3.50
2018-12-26T20:40:11.571Z,3.50
2018-12-26T20:43:18.695Z,3.50
2018-12-26T20:46:26.381Z,3.60
2018-12-26T20:49:33.608Z,3.50
2018-12-26T20:52:40.855Z,3.50
2018-12-26T20:55:48.353Z,3.50
2018-12-26T20:58:58.186Z,3.50
2018-12-26T21:02:06.034Z,3.40
2018-12-26T21:05:13.191Z,3.40
2018-12-26T21:08:20.472Z,3.50
2018-12-26T21:11:27.839Z,3.50
2018-12-26T21:14:35.051Z,3.60
2018-12-26T21:17:42.254Z,3.60
2018-12-26T21:20:49.657Z,3.60
2018-12-26T21:23:57.890Z,3.50
2018-12-26T21:27:04.990Z,3.50
2018-12-26T21:30:14.597Z,3.70
2018-12-26T21:33:21.814Z,3.70
2018-12-26T21:36:30.056Z,3.50
2018-12-26T21:39:37.281Z,3.40
2018-12-26T21:42:44.308Z,3.40
2018-12-26T21:45:51.653Z,3.40
2018-12-26T21:48:58.851Z,3.40
2018-12-26T21:52:05.871Z,3.40
2018-12-26T21:55:12.961Z,3.50
2018-12-26T21:58:20.612Z,3.40
2018-12-26T22:01:28.897Z,3.40
2018-12-26T22:04:36.195Z,3.40
2018-12-26T22:07:43.317Z,3.40
2018-12-26T22:10:50.413Z,3.40
2018-12-26T22:13:57.403Z,3.50
2018-12-26T22:17:04.455Z,3.60
2018-12-26T22:20:11.384Z,3.70
2018-12-26T22:23:18.320Z,3.70
2018-12-26T22:26:25.317Z,3.70
2018-12-26T22:29:32.214Z,3.70
2018-12-26T22:32:42.134Z,3.80
2018-12-26T22:35:49.183Z,3.90
2018-12-26T22:38:56.388Z,3.80
2018-12-26T22:42:03.683Z,3.80
2018-12-26T22:45:10.968Z,3.70
2018-12-26T22:48:18.438Z,3.80
2018-12-26T22:51:25.582Z,3.90
2018-12-26T22:54:32.632Z,3.90
2018-12-26T22:57:40.174Z,3.90
2018-12-26T23:00:47.932Z,3.80
2018-12-26T23:03:54.995Z,3.70
2018-12-26T23:07:02.202Z,3.60
2018-12-26T23:10:09.493Z,3.60
2018-12-26T23:13:17.771Z,3.60
2018-12-26T23:16:24.833Z,3.60
2018-12-26T23:19:31.942Z,3.60
2018-12-26T23:22:39.224Z,3.60
2018-12-26T23:25:46.157Z,3.50
2018-12-26T23:28:53.229Z,3.50
2018-12-26T23:32:00.462Z,3.50
2018-12-26T23:35:07.706Z,3.50
2018-12-26T23:38:15.108Z,3.50
2018-12-26T23:41:22.329Z,3.60
2018-12-26T23:44:29.550Z,3.60
2018-12-26T23:47:36.780Z,3.60
2018-12-26T23:50:44.337Z,3.70
2018-12-26T23:53:52.757Z,3.70
2018-12-26T23:57:00.010Z,3.80
